Aughnacloy, United Kingdom
Current Conditions -  °F | °C
As of 8:50 AM on Sunday 23 Nov 2014 (Local Time) from EGAA Reporting Station
Few Clouds Few Clouds  
Wind Chill: 30°   Ceiling: Unl
Heat Index: 36°   Visibility: 6mi
Dew Point: 36°   Wind: 7mph
Humidity: 100%   Direction: 170°S
Pressure: 30.09"   Gusts: NA
Location:  54.41°N, 6.98°W
Report Text: EGAA 230850Z 17006KT 9999 FEW004 02/02 Q1019
Loading
Personal Weather Stations






























Interactive Weather Map New forecast layout! Learn more

10-Day Weather Forecast

Advertisements
Track Severe Weather on mobile